PWSweather.com
Personal Weather Stations
Station Observations
KCAOCEAN4
Jeffries Ranch, Oceanside, CA 92057

Jeffries RanchOceanside, CA 92057

Lat: 33.2463208, Lon: -117.25335080000002

Elevation: 207

Station Type: Davis Vantage Vue

jeffriesranchweather.com

High Low Average
Temperature 75.4°F24.1°C 42.1°F5.6°C 56.8°F13.8°C
Dew Point 34.5°F1.4°C 19.8°F-6.8°C 29.3°F-1.5°C
Winds 8.1 mph 13.0 kmh Calm Calm 2.0 mph SE3.2 kmh SE
Wind Gusts 14.1 mph22.7 kmh -- 6.0 mph9.7 kmh
Humidity 65% 15% 40%
Pressure 30.05 in1017.6 mb 29.93 in1013.5 mb -
Precipitation 0.00 in0.0 mm - -
Hour Temp Dew Point Humidity Winds Wind Gusts Pressure Precip Precip Rate Daily Precip Total
12:09 AM 45.9°F7.7°C 34.3°F1.3°C 64% 2.0 mph E3.2 kmh E 6.0 mph9.7 kmh 30.02 in1016.6 mb 0.00 in0.0 mm 0.00 in0.0 mm 0.00 in0.0 mm
12:19 AM 45.7°F7.6°C 34.5°F1.4°C 65% 2.9 mph E4.7 kmh E 6.9 mph11.1 kmh 30.02 in1016.6 mb 0.00 in0.0 mm 0.00 in0.0 mm 0.00 in0.0 mm
12:29 AM 45.3°F7.4°C 34.3°F1.3°C 65% 2.9 mph E4.7 kmh E 6.0 mph9.7 kmh 30.02 in1016.6 mb 0.00 in0.0 mm 0.00 in0.0 mm 0.00 in0.0 mm
12:39 AM 45.3°F7.4°C 33.4°F0.8°C 63% 2.9 mph NE4.7 kmh NE 7.0 mph11.3 kmh 30.02 in1016.6 mb 0.00 in0.0 mm 0.00 in0.0 mm 0.00 in0.0 mm
12:49 AM 45.7°F7.6°C 33.4°F0.8°C 62% 4.0 mph ENE6.4 kmh ENE 6.9 mph11.1 kmh 30.03 in1016.9 mb 0.00 in0.0 mm 0.00 in0.0 mm 0.00 in0.0 mm
12:59 AM 45.7°F7.6°C 32.5°F0.3°C 60% 4.0 mph ENE6.4 kmh ENE 6.9 mph11.1 kmh 30.03 in1016.9 mb 0.00 in0.0 mm 0.00 in0.0 mm 0.00 in0.0 mm
01:09 AM 45.1°F7.3°C 31.6°F-0.2°C 59% 2.0 mph E3.2 kmh E 6.0 mph9.7 kmh 30.03 in1016.9 mb 0.00 in0.0 mm 0.00 in0.0 mm 0.00 in0.0 mm
01:19 AM 45.0°F7.2°C 32.4°F0.2°C 61% 2.9 mph NE4.7 kmh NE 6.0 mph9.7 kmh 30.03 in1016.9 mb 0.00 in0.0 mm 0.00 in0.0 mm 0.00 in0.0 mm
01:29 AM 44.8°F7.1°C 32.2°F0.1°C 61% 2.9 mph NE4.7 kmh NE 4.9 mph7.9 kmh 30.03 in1016.9 mb 0.00 in0.0 mm 0.00 in0.0 mm 0.00 in0.0 mm
01:39 AM 44.4°F6.9°C 32.2°F0.1°C 62% 2.9 mph NNE4.7 kmh NNE 4.9 mph7.9 kmh 30.03 in1016.9 mb 0.00 in0.0 mm 0.00 in0.0 mm 0.00 in0.0 mm
01:49 AM 44.2°F6.8°C 32.0°F0.0°C 62% 2.0 mph ESE3.2 kmh ESE 4.0 mph6.4 kmh 30.03 in1016.9 mb 0.00 in0.0 mm 0.00 in0.0 mm 0.00 in0.0 mm
01:59 AM 44.1°F6.7°C 31.8°F-0.1°C 62% 2.0 mph SE3.2 kmh SE 4.0 mph6.4 kmh 30.03 in1016.9 mb 0.00 in0.0 mm 0.00 in0.0 mm 0.00 in0.0 mm
02:09 AM 43.9°F6.6°C 31.3°F-0.4°C 61% 0.9 mph ENE1.4 kmh ENE 2.9 mph4.7 kmh 30.03 in1016.9 mb 0.00 in0.0 mm 0.00 in0.0 mm 0.00 in0.0 mm
02:19 AM 43.3°F6.3°C 31.6°F-0.2°C 63% Calm Calm 2.9 mph4.7 kmh 30.03 in1016.9 mb 0.00 in0.0 mm 0.00 in0.0 mm 0.00 in0.0 mm
02:29 AM 43.0°F6.1°C 31.6°F-0.2°C 64% Calm Calm 2.0 mph3.2 kmh 30.03 in1016.9 mb 0.00 in0.0 mm 0.00 in0.0 mm 0.00 in0.0 mm
02:39 AM 42.6°F5.9°C 31.6°F-0.2°C 65% Calm Calm 2.0 mph3.2 kmh 30.03 in1016.9 mb 0.00 in0.0 mm 0.00 in0.0 mm 0.00 in0.0 mm
02:49 AM 43.0°F6.1°C 31.6°F-0.2°C 64% Calm Calm 0.9 mph1.4 kmh 30.03 in1016.9 mb 0.00 in0.0 mm 0.00 in0.0 mm 0.00 in0.0 mm
02:59 AM 43.0°F6.1°C 30.9°F-0.6°C 62% 0.9 mph E1.4 kmh E 3.0 mph4.8 kmh 30.02 in1016.6 mb 0.00 in0.0 mm 0.00 in0.0 mm 0.00 in0.0 mm
03:09 AM 42.6°F5.9°C 31.3°F-0.4°C 64% Calm Calm 0.9 mph1.4 kmh 30.02 in1016.6 mb 0.00 in0.0 mm 0.00 in0.0 mm 0.00 in0.0 mm
03:19 AM 43.2°F6.2°C 31.1°F-0.5°C 62% 0.9 mph ENE1.4 kmh ENE 2.9 mph4.7 kmh 30.01 in1016.3 mb 0.00 in0.0 mm 0.00 in0.0 mm 0.00 in0.0 mm
03:29 AM 43.3°F6.3°C 30.7°F-0.7°C 61% 0.9 mph SE1.4 kmh SE 2.9 mph4.7 kmh 30.01 in1016.3 mb 0.00 in0.0 mm 0.00 in0.0 mm 0.00 in0.0 mm
03:39 AM 42.8°F6.0°C 30.7°F-0.7°C 62% Calm Calm 0.9 mph1.4 kmh 30.01 in1016.3 mb 0.00 in0.0 mm 0.00 in0.0 mm 0.00 in0.0 mm
03:49 AM 43.3°F6.3°C 30.7°F-0.7°C 61% 0.9 mph ENE1.4 kmh ENE 4.0 mph6.4 kmh 30.01 in1016.3 mb 0.00 in0.0 mm 0.00 in0.0 mm 0.00 in0.0 mm
03:59 AM 43.7°F6.5°C 30.7°F-0.7°C 60% 2.0 mph E3.2 kmh E 6.0 mph9.7 kmh 30.01 in1016.3 mb 0.00 in0.0 mm 0.00 in0.0 mm 0.00 in0.0 mm
04:09 AM 43.7°F6.5°C 31.1°F-0.5°C 61% 2.9 mph ENE4.7 kmh ENE 7.0 mph11.3 kmh 30.00 in1015.9 mb 0.00 in0.0 mm 0.00 in0.0 mm 0.00 in0.0 mm
04:19 AM 43.3°F6.3°C 31.3°F-0.4°C 62% 4.0 mph E6.4 kmh E 8.1 mph13.0 kmh 29.99 in1015.6 mb 0.00 in0.0 mm 0.00 in0.0 mm 0.00 in0.0 mm
04:29 AM 43.2°F6.2°C 31.5°F-0.3°C 63% 2.9 mph ENE4.7 kmh ENE 6.0 mph9.7 kmh 29.99 in1015.6 mb 0.00 in0.0 mm 0.00 in0.0 mm 0.00 in0.0 mm
04:39 AM 43.5°F6.4°C 30.6°F-0.8°C 60% 2.9 mph NE4.7 kmh NE 8.1 mph13.0 kmh 29.99 in1015.6 mb 0.00 in0.0 mm 0.00 in0.0 mm 0.00 in0.0 mm
04:49 AM 43.7°F6.5°C 30.7°F-0.7°C 60% 2.9 mph ENE4.7 kmh ENE 6.9 mph11.1 kmh 29.99 in1015.6 mb 0.00 in0.0 mm 0.00 in0.0 mm 0.00 in0.0 mm
04:59 AM 43.7°F6.5°C 30.4°F-0.9°C 59% 4.0 mph E6.4 kmh E 7.0 mph11.3 kmh 30.00 in1015.9 mb 0.00 in0.0 mm 0.00 in0.0 mm 0.00 in0.0 mm
05:09 AM 43.5°F6.4°C 30.6°F-0.8°C 60% 2.9 mph ENE4.7 kmh ENE 6.0 mph9.7 kmh 30.00 in1015.9 mb 0.00 in0.0 mm 0.00 in0.0 mm 0.00 in0.0 mm
05:19 AM 43.3°F6.3°C 30.7°F-0.7°C 61% 2.0 mph NE3.2 kmh NE 4.9 mph7.9 kmh 30.00 in1015.9 mb 0.00 in0.0 mm 0.00 in0.0 mm 0.00 in0.0 mm
05:29 AM 43.3°F6.3°C 30.4°F-0.9°C 60% 2.0 mph NE3.2 kmh NE 6.0 mph9.7 kmh 30.00 in1015.9 mb 0.00 in0.0 mm 0.00 in0.0 mm 0.00 in0.0 mm
05:39 AM 43.5°F6.4°C 30.2°F-1.0°C 59% 2.9 mph E4.7 kmh E 6.0 mph9.7 kmh 30.00 in1015.9 mb 0.00 in0.0 mm 0.00 in0.0 mm 0.00 in0.0 mm
05:49 AM 43.5°F6.4°C 30.2°F-1.0°C 59% 2.9 mph E4.7 kmh E 4.9 mph7.9 kmh 30.00 in1015.9 mb 0.00 in0.0 mm 0.00 in0.0 mm 0.00 in0.0 mm
05:59 AM 43.5°F6.4°C 29.7°F-1.3°C 58% 4.0 mph E6.4 kmh E 7.0 mph11.3 kmh 30.00 in1015.9 mb 0.00 in0.0 mm 0.00 in0.0 mm 0.00 in0.0 mm
06:09 AM 43.9°F6.6°C 29.7°F-1.3°C 57% 4.0 mph ENE6.4 kmh ENE 7.0 mph11.3 kmh 30.00 in1015.9 mb 0.00 in0.0 mm 0.00 in0.0 mm 0.00 in0.0 mm
06:19 AM 44.4°F6.9°C 29.3°F-1.5°C 55% 4.0 mph ENE6.4 kmh ENE 6.0 mph9.7 kmh 30.01 in1016.3 mb 0.00 in0.0 mm 0.00 in0.0 mm 0.00 in0.0 mm
06:29 AM 44.4°F6.9°C 29.7°F-1.3°C 56% 2.9 mph ENE4.7 kmh ENE 6.0 mph9.7 kmh 30.01 in1016.3 mb 0.00 in0.0 mm 0.00 in0.0 mm 0.00 in0.0 mm
06:39 AM 44.1°F6.7°C 29.8°F-1.2°C 57% 2.9 mph NE4.7 kmh NE 6.0 mph9.7 kmh 30.01 in1016.3 mb 0.00 in0.0 mm 0.00 in0.0 mm 0.00 in0.0 mm
06:49 AM 43.5°F6.4°C 29.7°F-1.3°C 58% 2.0 mph N3.2 kmh N 4.9 mph7.9 kmh 30.01 in1016.3 mb 0.00 in0.0 mm 0.00 in0.0 mm 0.00 in0.0 mm
06:59 AM 43.5°F6.4°C 29.7°F-1.3°C 58% 0.9 mph E1.4 kmh E 4.0 mph6.4 kmh 30.02 in1016.6 mb 0.00 in0.0 mm 0.00 in0.0 mm 0.00 in0.0 mm
07:09 AM 43.0°F6.1°C 29.7°F-1.3°C 59% 0.9 mph SE1.4 kmh SE 4.9 mph7.9 kmh 30.02 in1016.6 mb 0.00 in0.0 mm 0.00 in0.0 mm 0.00 in0.0 mm
07:19 AM 42.1°F5.6°C 29.1°F-1.6°C 60% Calm Calm 3.0 mph4.8 kmh 30.02 in1016.6 mb 0.00 in0.0 mm 0.00 in0.0 mm 0.00 in0.0 mm
07:29 AM 42.3°F5.7°C 29.3°F-1.5°C 60% 0.9 mph E1.4 kmh E 4.0 mph6.4 kmh 30.03 in1016.9 mb 0.00 in0.0 mm 0.00 in0.0 mm 0.00 in0.0 mm
07:39 AM 42.3°F5.7°C 29.3°F-1.5°C 60% 2.0 mph E3.2 kmh E 4.0 mph6.4 kmh 30.03 in1016.9 mb 0.00 in0.0 mm 0.00 in0.0 mm 0.00 in0.0 mm
07:49 AM 43.3°F6.3°C 29.5°F-1.4°C 58% 2.0 mph NE3.2 kmh NE 4.9 mph7.9 kmh 30.03 in1016.9 mb 0.00 in0.0 mm 0.00 in0.0 mm 0.00 in0.0 mm
07:59 AM 45.1°F7.3°C 30.4°F-0.9°C 56% 2.0 mph E3.2 kmh E 4.9 mph7.9 kmh 30.03 in1016.9 mb 0.00 in0.0 mm 0.00 in0.0 mm 0.00 in0.0 mm
08:09 AM 46.6°F8.1°C 30.4°F-0.9°C 53% 0.9 mph E1.4 kmh E 4.9 mph7.9 kmh 30.04 in1017.3 mb 0.00 in0.0 mm 0.00 in0.0 mm 0.00 in0.0 mm
08:19 AM 48.0°F8.9°C 31.3°F-0.4°C 52% Calm Calm 2.0 mph3.2 kmh 30.04 in1017.3 mb 0.00 in0.0 mm 0.00 in0.0 mm 0.00 in0.0 mm
08:29 AM 48.9°F9.4°C 31.6°F-0.2°C 51% 2.0 mph NE3.2 kmh NE 5.0 mph8.0 kmh 30.04 in1017.3 mb 0.00 in0.0 mm 0.00 in0.0 mm 0.00 in0.0 mm
08:39 AM 49.8°F9.9°C 32.4°F0.2°C 51% 0.9 mph ENE1.4 kmh ENE 2.9 mph4.7 kmh 30.04 in1017.3 mb 0.00 in0.0 mm 0.00 in0.0 mm 0.00 in0.0 mm
08:49 AM 50.9°F10.5°C 32.9°F0.5°C 50% 0.9 mph NE1.4 kmh NE 2.9 mph4.7 kmh 30.05 in1017.6 mb 0.00 in0.0 mm 0.00 in0.0 mm 0.00 in0.0 mm
08:59 AM 52.3°F11.3°C 32.7°F0.4°C 47% 2.9 mph NE4.7 kmh NE 6.0 mph9.7 kmh 30.05 in1017.6 mb 0.00 in0.0 mm 0.00 in0.0 mm 0.00 in0.0 mm
09:09 AM 54.0°F12.2°C 33.1°F0.6°C 45% 4.0 mph NE6.4 kmh NE 8.1 mph13.0 kmh 30.05 in1017.6 mb 0.00 in0.0 mm 0.00 in0.0 mm 0.00 in0.0 mm
09:19 AM 55.4°F13.0°C 32.7°F0.4°C 42% 4.0 mph E6.4 kmh E 6.9 mph11.1 kmh 30.05 in1017.6 mb 0.00 in0.0 mm 0.00 in0.0 mm 0.00 in0.0 mm
09:29 AM 57.0°F13.9°C 34.2°F1.2°C 42% 4.0 mph NE6.4 kmh NE 6.9 mph11.1 kmh 30.05 in1017.6 mb 0.00 in0.0 mm 0.00 in0.0 mm 0.00 in0.0 mm
09:39 AM 58.8°F14.9°C 34.5°F1.4°C 40% 2.9 mph NE4.7 kmh NE 7.0 mph11.3 kmh 30.05 in1017.6 mb 0.00 in0.0 mm 0.00 in0.0 mm 0.00 in0.0 mm
09:49 AM 60.4°F15.8°C 33.4°F0.8°C 36% 2.9 mph E4.7 kmh E 6.0 mph9.7 kmh 30.05 in1017.6 mb 0.00 in0.0 mm 0.00 in0.0 mm 0.00 in0.0 mm
09:59 AM 62.1°F16.7°C 30.2°F-1.0°C 30% 4.0 mph NE6.4 kmh NE 8.1 mph13.0 kmh 30.05 in1017.6 mb 0.00 in0.0 mm 0.00 in0.0 mm 0.00 in0.0 mm
10:09 AM 63.0°F17.2°C 29.3°F-1.5°C 28% 4.9 mph NE7.9 kmh NE 8.9 mph14.3 kmh 30.04 in1017.3 mb 0.00 in0.0 mm 0.00 in0.0 mm 0.00 in0.0 mm
10:19 AM 64.2°F17.9°C 30.4°F-0.9°C 28% 4.0 mph NNE6.4 kmh NNE 8.1 mph13.0 kmh 30.04 in1017.3 mb 0.00 in0.0 mm 0.00 in0.0 mm 0.00 in0.0 mm
10:29 AM 65.1°F18.4°C 26.4°F-3.1°C 23% 4.9 mph ENE7.9 kmh ENE 8.1 mph13.0 kmh 30.05 in1017.6 mb 0.00 in0.0 mm 0.00 in0.0 mm 0.00 in0.0 mm
10:39 AM 66.9°F19.4°C 28.9°F-1.7°C 24% 2.9 mph NE4.7 kmh NE 4.9 mph7.9 kmh 30.05 in1017.6 mb 0.00 in0.0 mm 0.00 in0.0 mm 0.00 in0.0 mm
10:49 AM 68.2°F20.1°C 27.9°F-2.3°C 22% 0.9 mph NW1.4 kmh NW 2.9 mph4.7 kmh 30.05 in1017.6 mb 0.00 in0.0 mm 0.00 in0.0 mm 0.00 in0.0 mm
10:59 AM 69.4°F20.8°C 19.8°F-6.8°C 15% 0.9 mph NE1.4 kmh NE 4.0 mph6.4 kmh 30.05 in1017.6 mb 0.00 in0.0 mm 0.00 in0.0 mm 0.00 in0.0 mm
11:09 AM 70.2°F21.2°C 20.3°F-6.5°C 15% 0.9 mph S1.4 kmh S 4.0 mph6.4 kmh 30.04 in1017.3 mb 0.00 in0.0 mm 0.00 in0.0 mm 0.00 in0.0 mm
11:19 AM 70.9°F21.6°C 22.5°F-5.3°C 16% 0.9 mph WSW1.4 kmh WSW 2.9 mph4.7 kmh 30.04 in1017.3 mb 0.00 in0.0 mm 0.00 in0.0 mm 0.00 in0.0 mm
11:29 AM 72.0°F22.2°C 23.4°F-4.8°C 16% 0.9 mph WNW1.4 kmh WNW 4.0 mph6.4 kmh 30.05 in1017.6 mb 0.00 in0.0 mm 0.00 in0.0 mm 0.00 in0.0 mm
11:39 AM 71.4°F21.9°C 21.4°F-5.9°C 15% 2.0 mph W3.2 kmh W 5.0 mph8.0 kmh 30.05 in1017.6 mb 0.00 in0.0 mm 0.00 in0.0 mm 0.00 in0.0 mm
11:49 AM 72.3°F22.4°C 22.1°F-5.5°C 15% 0.9 mph E1.4 kmh E 5.0 mph8.0 kmh 30.04 in1017.3 mb 0.00 in0.0 mm 0.00 in0.0 mm 0.00 in0.0 mm
11:59 AM 72.9°F22.7°C 22.5°F-5.3°C 15% 2.0 mph S3.2 kmh S 8.1 mph13.0 kmh 30.04 in1017.3 mb 0.00 in0.0 mm 0.00 in0.0 mm 0.00 in0.0 mm
12:09 PM 73.2°F22.9°C 22.8°F-5.1°C 15% 2.0 mph NNW3.2 kmh NNW 6.0 mph9.7 kmh 30.03 in1016.9 mb 0.00 in0.0 mm 0.00 in0.0 mm 0.00 in0.0 mm
12:19 PM 73.2°F22.9°C 24.3°F-4.3°C 16% 2.0 mph NE3.2 kmh NE 4.9 mph7.9 kmh 30.03 in1016.9 mb 0.00 in0.0 mm 0.00 in0.0 mm 0.00 in0.0 mm
12:29 PM 73.9°F23.3°C 25.0°F-3.9°C 16% 0.9 mph NW1.4 kmh NW 4.9 mph7.9 kmh 30.02 in1016.6 mb 0.00 in0.0 mm 0.00 in0.0 mm 0.00 in0.0 mm
12:39 PM 74.3°F23.5°C 23.7°F-4.6°C 15% 2.0 mph SSE3.2 kmh SSE 6.0 mph9.7 kmh 30.01 in1016.3 mb 0.00 in0.0 mm 0.00 in0.0 mm 0.00 in0.0 mm
12:49 PM 74.1°F23.4°C 23.5°F-4.7°C 15% 2.0 mph SW3.2 kmh SW 4.9 mph7.9 kmh 30.01 in1016.3 mb 0.00 in0.0 mm 0.00 in0.0 mm 0.00 in0.0 mm
12:59 PM 75.4°F24.1°C 24.4°F-4.2°C 15% 2.0 mph SE3.2 kmh SE 6.0 mph9.7 kmh 30.00 in1015.9 mb 0.00 in0.0 mm 0.00 in0.0 mm 0.00 in0.0 mm
01:09 PM 75.0°F23.9°C 27.3°F-2.6°C 17% 4.0 mph W6.4 kmh W 8.9 mph14.3 kmh 30.00 in1015.9 mb 0.00 in0.0 mm 0.00 in0.0 mm 0.00 in0.0 mm
01:19 PM 74.5°F23.6°C 26.8°F-2.9°C 17% 6.0 mph W9.7 kmh W 10.1 mph16.3 kmh 29.99 in1015.6 mb 0.00 in0.0 mm 0.00 in0.0 mm 0.00 in0.0 mm
01:29 PM 73.9°F23.3°C 25.0°F-3.9°C 16% 6.9 mph W11.1 kmh W 13.0 mph20.9 kmh 29.99 in1015.6 mb 0.00 in0.0 mm 0.00 in0.0 mm 0.00 in0.0 mm
01:39 PM 73.0°F22.8°C 27.0°F-2.8°C 18% 6.9 mph W11.1 kmh W 11.0 mph17.7 kmh 29.98 in1015.2 mb 0.00 in0.0 mm 0.00 in0.0 mm 0.00 in0.0 mm
01:49 PM 72.9°F22.7°C 27.0°F-2.8°C 18% 6.9 mph W11.1 kmh W 14.1 mph22.7 kmh 29.98 in1015.2 mb 0.00 in0.0 mm 0.00 in0.0 mm 0.00 in0.0 mm
01:59 PM 72.1°F22.3°C 25.0°F-3.9°C 17% 8.1 mph W13.0 kmh W 13.0 mph20.9 kmh 29.98 in1015.2 mb 0.00 in0.0 mm 0.00 in0.0 mm 0.00 in0.0 mm
02:09 PM 71.8°F22.1°C 27.3°F-2.6°C 19% 8.1 mph WNW13.0 kmh WNW 14.1 mph22.7 kmh 29.97 in1014.9 mb 0.00 in0.0 mm 0.00 in0.0 mm 0.00 in0.0 mm
02:19 PM 72.1°F22.3°C 27.7°F-2.4°C 19% 6.0 mph NW9.7 kmh NW 10.1 mph16.3 kmh 29.97 in1014.9 mb 0.00 in0.0 mm 0.00 in0.0 mm 0.00 in0.0 mm
02:29 PM 72.9°F22.7°C 28.2°F-2.1°C 19% 6.0 mph WNW9.7 kmh WNW 12.1 mph19.5 kmh 29.96 in1014.6 mb 0.00 in0.0 mm 0.00 in0.0 mm 0.00 in0.0 mm
02:39 PM 72.1°F22.3°C 27.7°F-2.4°C 19% 6.9 mph W11.1 kmh W 12.1 mph19.5 kmh 29.96 in1014.6 mb 0.00 in0.0 mm 0.00 in0.0 mm 0.00 in0.0 mm
02:49 PM 72.1°F22.3°C 27.7°F-2.4°C 19% 6.9 mph WSW11.1 kmh WSW 13.0 mph20.9 kmh 29.96 in1014.6 mb 0.00 in0.0 mm 0.00 in0.0 mm 0.00 in0.0 mm
02:59 PM 72.0°F22.2°C 28.8°F-1.8°C 20% 6.0 mph SW9.7 kmh SW 13.0 mph20.9 kmh 29.96 in1014.6 mb 0.00 in0.0 mm 0.00 in0.0 mm 0.00 in0.0 mm
03:09 PM 72.0°F22.2°C 26.1°F-3.3°C 18% 6.0 mph WNW9.7 kmh WNW 11.0 mph17.7 kmh 29.95 in1014.2 mb 0.00 in0.0 mm 0.00 in0.0 mm 0.00 in0.0 mm
03:19 PM 71.8°F22.1°C 24.6°F-4.1°C 17% 6.9 mph W11.1 kmh W 10.1 mph16.3 kmh 29.95 in1014.2 mb 0.00 in0.0 mm 0.00 in0.0 mm 0.00 in0.0 mm
03:29 PM 71.8°F22.1°C 26.1°F-3.3°C 18% 6.9 mph WNW11.1 kmh WNW 11.0 mph17.7 kmh 29.94 in1013.9 mb 0.00 in0.0 mm 0.00 in0.0 mm 0.00 in0.0 mm
03:39 PM 72.0°F22.2°C 27.5°F-2.5°C 19% 4.9 mph WSW7.9 kmh WSW 11.0 mph17.7 kmh 29.93 in1013.5 mb 0.00 in0.0 mm 0.00 in0.0 mm 0.00 in0.0 mm
03:49 PM 72.0°F22.2°C 26.1°F-3.3°C 18% 4.0 mph SW6.4 kmh SW 8.9 mph14.3 kmh 29.93 in1013.5 mb 0.00 in0.0 mm 0.00 in0.0 mm 0.00 in0.0 mm
03:59 PM 72.1°F22.3°C 26.2°F-3.2°C 18% 4.9 mph NW7.9 kmh NW 10.1 mph16.3 kmh 29.93 in1013.5 mb 0.00 in0.0 mm 0.00 in0.0 mm 0.00 in0.0 mm
04:09 PM 72.5°F22.5°C 25.2°F-3.8°C 17% 4.0 mph ESE6.4 kmh ESE 8.1 mph13.0 kmh 29.93 in1013.5 mb 0.00 in0.0 mm 0.00 in0.0 mm 0.00 in0.0 mm
04:19 PM 72.7°F22.6°C 23.9°F-4.5°C 16% 4.0 mph W6.4 kmh W 11.0 mph17.7 kmh 29.93 in1013.5 mb 0.00 in0.0 mm 0.00 in0.0 mm 0.00 in0.0 mm
04:29 PM 72.9°F22.7°C 24.1°F-4.4°C 16% 4.9 mph W7.9 kmh W 13.0 mph20.9 kmh 29.94 in1013.9 mb 0.00 in0.0 mm 0.00 in0.0 mm 0.00 in0.0 mm
04:39 PM 72.3°F22.4°C 22.1°F-5.5°C 15% 6.9 mph SW11.1 kmh SW 14.1 mph22.7 kmh 29.95 in1014.2 mb 0.00 in0.0 mm 0.00 in0.0 mm 0.00 in0.0 mm
04:49 PM 71.8°F22.1°C 23.2°F-4.9°C 16% 6.0 mph WNW9.7 kmh WNW 12.1 mph19.5 kmh 29.94 in1013.9 mb 0.00 in0.0 mm 0.00 in0.0 mm 0.00 in0.0 mm
04:59 PM 70.9°F21.6°C 25.3°F-3.7°C 18% 6.0 mph WSW9.7 kmh WSW 11.0 mph17.7 kmh 29.95 in1014.2 mb 0.00 in0.0 mm 0.00 in0.0 mm 0.00 in0.0 mm
05:09 PM 70.5°F21.4°C 26.2°F-3.2°C 19% 4.9 mph WSW7.9 kmh WSW 11.0 mph17.7 kmh 29.95 in1014.2 mb 0.00 in0.0 mm 0.00 in0.0 mm 0.00 in0.0 mm
05:19 PM 70.2°F21.2°C 26.1°F-3.3°C 19% 4.9 mph SW7.9 kmh SW 10.1 mph16.3 kmh 29.95 in1014.2 mb 0.00 in0.0 mm 0.00 in0.0 mm 0.00 in0.0 mm
05:29 PM 70.0°F21.1°C 27.1°F-2.7°C 20% 4.0 mph N6.4 kmh N 10.1 mph16.3 kmh 29.95 in1014.2 mb 0.00 in0.0 mm 0.00 in0.0 mm 0.00 in0.0 mm
05:39 PM 70.0°F21.1°C 25.9°F-3.4°C 19% 2.9 mph W4.7 kmh W 8.1 mph13.0 kmh 29.95 in1014.2 mb 0.00 in0.0 mm 0.00 in0.0 mm 0.00 in0.0 mm
05:49 PM 70.3°F21.3°C 27.3°F-2.6°C 20% 0.9 mph SW1.4 kmh SW 6.0 mph9.7 kmh 29.95 in1014.2 mb 0.00 in0.0 mm 0.00 in0.0 mm 0.00 in0.0 mm
05:59 PM 70.2°F21.2°C 27.1°F-2.7°C 20% 2.0 mph SSW3.2 kmh SSW 4.9 mph7.9 kmh 29.95 in1014.2 mb 0.00 in0.0 mm 0.00 in0.0 mm 0.00 in0.0 mm
06:09 PM 69.8°F21.0°C 27.0°F-2.8°C 20% 2.0 mph SSW3.2 kmh SSW 6.0 mph9.7 kmh 29.95 in1014.2 mb 0.00 in0.0 mm 0.00 in0.0 mm 0.00 in0.0 mm
06:19 PM 69.4°F20.8°C 27.9°F-2.3°C 21% 0.9 mph SW1.4 kmh SW 4.9 mph7.9 kmh 29.95 in1014.2 mb 0.00 in0.0 mm 0.00 in0.0 mm 0.00 in0.0 mm
06:29 PM 68.5°F20.3°C 27.1°F-2.7°C 21% Calm Calm 2.0 mph3.2 kmh 29.95 in1014.2 mb 0.00 in0.0 mm 0.00 in0.0 mm 0.00 in0.0 mm
06:39 PM 66.7°F19.3°C 28.8°F-1.8°C 24% 2.0 mph SSE3.2 kmh SSE 4.0 mph6.4 kmh 29.95 in1014.2 mb 0.00 in0.0 mm 0.00 in0.0 mm 0.00 in0.0 mm
06:49 PM 64.9°F18.3°C 29.3°F-1.5°C 26% 2.0 mph SE3.2 kmh SE 2.9 mph4.7 kmh 29.95 in1014.2 mb 0.00 in0.0 mm 0.00 in0.0 mm 0.00 in0.0 mm
06:59 PM 63.7°F17.6°C 30.7°F-0.7°C 29% Calm Calm 0.9 mph1.4 kmh 29.95 in1014.2 mb 0.00 in0.0 mm 0.00 in0.0 mm 0.00 in0.0 mm
07:09 PM 62.4°F16.9°C 32.2°F0.1°C 32% 0.9 mph SE1.4 kmh SE 0.9 mph1.4 kmh 29.96 in1014.6 mb 0.00 in0.0 mm 0.00 in0.0 mm 0.00 in0.0 mm
07:19 PM 61.0°F16.1°C 32.4°F0.2°C 34% 0.9 mph ESE1.4 kmh ESE 2.0 mph3.2 kmh 29.96 in1014.6 mb 0.00 in0.0 mm 0.00 in0.0 mm 0.00 in0.0 mm
07:29 PM 59.7°F15.4°C 32.7°F0.4°C 36% Calm Calm -- 29.97 in1014.9 mb 0.00 in0.0 mm 0.00 in0.0 mm 0.00 in0.0 mm
07:39 PM 58.5°F14.7°C 32.9°F0.5°C 38% Calm Calm -- 29.97 in1014.9 mb 0.00 in0.0 mm 0.00 in0.0 mm 0.00 in0.0 mm
07:49 PM 57.4°F14.1°C 32.5°F0.3°C 39% Calm Calm -- 29.98 in1015.2 mb 0.00 in0.0 mm 0.00 in0.0 mm 0.00 in0.0 mm
07:59 PM 56.8°F13.8°C 33.4°F0.8°C 41% Calm Calm -- 29.98 in1015.2 mb 0.00 in0.0 mm 0.00 in0.0 mm 0.00 in0.0 mm
08:09 PM 55.6°F13.1°C 32.9°F0.5°C 42% Calm Calm -- 29.98 in1015.2 mb 0.00 in0.0 mm 0.00 in0.0 mm 0.00 in0.0 mm
08:19 PM 55.2°F12.9°C 33.1°F0.6°C 43% Calm Calm -- 29.99 in1015.6 mb 0.00 in0.0 mm 0.00 in0.0 mm 0.00 in0.0 mm
08:29 PM 54.7°F12.6°C 33.8°F1.0°C 45% Calm Calm -- 29.99 in1015.6 mb 0.00 in0.0 mm 0.00 in0.0 mm 0.00 in0.0 mm
08:39 PM 54.7°F12.6°C 32.5°F0.3°C 43% Calm Calm -- 30.00 in1015.9 mb 0.00 in0.0 mm 0.00 in0.0 mm 0.00 in0.0 mm
08:50 PM 54.9°F12.7°C 32.2°F0.1°C 42% Calm Calm -- 30.00 in1015.9 mb 0.00 in0.0 mm 0.00 in0.0 mm 0.00 in0.0 mm
09:00 PM 55.6°F13.1°C 33.4°F0.8°C 43% 0.9 mph SE1.4 kmh SE 2.0 mph3.2 kmh 30.00 in1015.9 mb 0.00 in0.0 mm 0.00 in0.0 mm 0.00 in0.0 mm
09:10 PM 54.7°F12.6°C 33.3°F0.7°C 44% Calm Calm 0.9 mph1.4 kmh 30.00 in1015.9 mb 0.00 in0.0 mm 0.00 in0.0 mm 0.00 in0.0 mm
09:20 PM 53.8°F12.1°C 34.0°F1.1°C 47% Calm Calm 0.9 mph1.4 kmh 30.00 in1015.9 mb 0.00 in0.0 mm 0.00 in0.0 mm 0.00 in0.0 mm
09:30 PM 52.7°F11.5°C 30.7°F-0.7°C 43% 2.0 mph ENE3.2 kmh ENE 5.0 mph8.0 kmh 30.01 in1016.3 mb 0.00 in0.0 mm 0.00 in0.0 mm 0.00 in0.0 mm
09:40 PM 52.3°F11.3°C 31.6°F-0.2°C 45% 2.0 mph E3.2 kmh E 4.0 mph6.4 kmh 30.01 in1016.3 mb 0.00 in0.0 mm 0.00 in0.0 mm 0.00 in0.0 mm
09:50 PM 52.0°F11.1°C 31.8°F-0.1°C 46% 2.0 mph ESE3.2 kmh ESE 4.9 mph7.9 kmh 30.01 in1016.3 mb 0.00 in0.0 mm 0.00 in0.0 mm 0.00 in0.0 mm
10:00 PM 51.3°F10.7°C 32.2°F0.1°C 48% Calm Calm 2.0 mph3.2 kmh 30.01 in1016.3 mb 0.00 in0.0 mm 0.00 in0.0 mm 0.00 in0.0 mm
10:10 PM 50.9°F10.5°C 31.8°F-0.1°C 48% 0.9 mph E1.4 kmh E 2.0 mph3.2 kmh 30.01 in1016.3 mb 0.00 in0.0 mm 0.00 in0.0 mm 0.00 in0.0 mm
10:20 PM 50.7°F10.4°C 31.3°F-0.4°C 47% 2.0 mph ENE3.2 kmh ENE 5.0 mph8.0 kmh 30.00 in1015.9 mb 0.00 in0.0 mm 0.00 in0.0 mm 0.00 in0.0 mm
10:30 PM 49.8°F9.9°C 30.9°F-0.6°C 48% 2.0 mph ENE3.2 kmh ENE 4.0 mph6.4 kmh 30.00 in1015.9 mb 0.00 in0.0 mm 0.00 in0.0 mm 0.00 in0.0 mm
10:40 PM 49.3°F9.6°C 30.9°F-0.6°C 49% 2.0 mph E3.2 kmh E 4.0 mph6.4 kmh 30.00 in1015.9 mb 0.00 in0.0 mm 0.00 in0.0 mm 0.00 in0.0 mm
10:50 PM 48.7°F9.3°C 31.5°F-0.3°C 51% 0.9 mph E1.4 kmh E 2.0 mph3.2 kmh 30.00 in1015.9 mb 0.00 in0.0 mm 0.00 in0.0 mm 0.00 in0.0 mm
11:00 PM 48.7°F9.3°C 30.9°F-0.6°C 50% 0.9 mph E1.4 kmh E 4.0 mph6.4 kmh 30.00 in1015.9 mb 0.00 in0.0 mm 0.00 in0.0 mm 0.00 in0.0 mm
11:10 PM 47.8°F8.8°C 32.0°F0.0°C 54% 0.9 mph SE1.4 kmh SE 4.0 mph6.4 kmh 30.00 in1015.9 mb 0.00 in0.0 mm 0.00 in0.0 mm 0.00 in0.0 mm
11:20 PM 47.8°F8.8°C 32.5°F0.3°C 55% 0.9 mph E1.4 kmh E 2.0 mph3.2 kmh 30.01 in1016.3 mb 0.00 in0.0 mm 0.00 in0.0 mm 0.00 in0.0 mm
11:30 PM 46.9°F8.3°C 32.0°F0.0°C 56% Calm Calm 2.0 mph3.2 kmh 30.01 in1016.3 mb 0.00 in0.0 mm 0.00 in0.0 mm 0.00 in0.0 mm
11:40 PM 46.8°F8.2°C 31.8°F-0.1°C 56% Calm Calm 0.9 mph1.4 kmh 30.01 in1016.3 mb 0.00 in0.0 mm 0.00 in0.0 mm 0.00 in0.0 mm
11:50 PM 46.9°F8.3°C 31.6°F-0.2°C 55% Calm Calm 2.0 mph3.2 kmh 30.01 in1016.3 mb 0.00 in0.0 mm 0.00 in0.0 mm 0.00 in0.0 mm